createdAt,value
2022-09-09T00:00:19.530Z,1.40
2022-09-09T00:03:05.456Z,0.25
2022-09-09T00:06:12.392Z,0.10
2022-09-09T00:09:03.254Z,0.95
2022-09-09T00:12:25.523Z,1.48
2022-09-09T00:15:24.823Z,4.15
2022-09-09T00:18:25.839Z,2.50
2022-09-09T00:21:16.790Z,2.55
2022-09-09T00:24:11.924Z,2.33
2022-09-09T00:27:06.309Z,1.17
2022-09-09T00:30:19.681Z,1.65
2022-09-09T00:33:16.015Z,3.42
2022-09-09T00:36:04.095Z,0.35
2022-09-09T00:38:53.460Z,1.95
2022-09-09T00:41:41.927Z,0.55
2022-09-09T00:44:36.315Z,1.73
2022-09-09T00:47:43.414Z,1.20
2022-09-09T00:50:57.482Z,1.25
2022-09-09T00:54:01.782Z,2.20
2022-09-09T00:57:07.857Z,2.55
2022-09-09T01:00:19.785Z,3.78
2022-09-09T01:03:09.720Z,3.75
2022-09-09T01:06:04.423Z,1.33
2022-09-09T01:09:00.958Z,3.63
2022-09-09T01:12:34.246Z,0.82
2022-09-09T01:15:25.612Z,0.40
2022-09-09T01:18:15.504Z,1.27
2022-09-09T01:21:24.980Z,2.95
2022-09-09T01:24:50.363Z,1.50
2022-09-09T01:27:43.149Z,0.57
2022-09-09T01:30:30.284Z,2.15
2022-09-09T01:33:19.426Z,0.75
2022-09-09T01:36:13.402Z,0.10
2022-09-09T01:39:06.133Z,1.98
2022-09-09T01:41:55.541Z,0.20
2022-09-09T01:44:41.746Z,0.10
2022-09-09T01:47:27.715Z,0.35
2022-09-09T01:50:48.662Z,0.60
2022-09-09T01:53:35.308Z,0.82
2022-09-09T01:57:04.860Z,0.30
2022-09-09T02:00:13.045Z,0.10
2022-09-09T02:03:19.970Z,0.73
2022-09-09T02:06:40.917Z,0.10
2022-09-09T02:09:39.879Z,0.10
2022-09-09T02:12:27.108Z,0.10
2022-09-09T02:15:40.465Z,0.10
2022-09-09T02:18:32.652Z,0.30
2022-09-09T02:21:19.601Z,0.75
2022-09-09T02:24:09.099Z,0.68
2022-09-09T02:27:01.561Z,0.32
2022-09-09T02:29:50.531Z,0.40
2022-09-09T02:32:40.775Z,0.10
2022-09-09T02:35:31.603Z,0.60
2022-09-09T02:38:19.449Z,0.35
2022-09-09T02:41:18.034Z,0.40
2022-09-09T02:44:11.237Z,0.40
2022-09-09T02:46:56.957Z,1.73
2022-09-09T02:50:16.629Z,1.85
2022-09-09T02:53:11.228Z,0.30
2022-09-09T02:56:06.729Z,0.38
2022-09-09T02:58:56.397Z,0.15
2022-09-09T03:01:45.072Z,0.20
2022-09-09T03:04:32.332Z,0.30
2022-09-09T03:07:21.566Z,0.60
2022-09-09T03:10:27.296Z,1.35
2022-09-09T03:13:13.925Z,1.23
2022-09-09T03:16:00.971Z,1.25
2022-09-09T03:18:49.181Z,0.17
2022-09-09T03:21:34.928Z,0.20
2022-09-09T03:24:21.124Z,0.85
2022-09-09T03:27:08.313Z,0.40
2022-09-09T03:29:57.022Z,0.40
2022-09-09T03:32:48.786Z,0.50
2022-09-09T03:35:34.671Z,0.40
2022-09-09T03:38:21.065Z,0.43
2022-09-09T03:41:09.298Z,0.30
2022-09-09T03:43:56.691Z,0.80
2022-09-09T03:46:44.603Z,0.98
2022-09-09T03:49:32.822Z,0.50
2022-09-09T03:52:23.730Z,1.48
2022-09-09T03:55:11.231Z,1.08
2022-09-09T03:57:56.740Z,0.90
2022-09-09T04:00:43.977Z,0.90
2022-09-09T04:03:30.698Z,0.63
2022-09-09T04:06:16.360Z,1.63
2022-09-09T04:09:05.455Z,1.00
2022-09-09T04:11:51.692Z,0.73
2022-09-09T04:14:37.381Z,0.10
2022-09-09T04:17:25.215Z,1.42
2022-09-09T04:20:13.153Z,0.70
2022-09-09T04:22:58.706Z,1.00
2022-09-09T04:25:52.745Z,1.15
2022-09-09T04:28:39.192Z,1.05
2022-09-09T04:31:32.646Z,0.13
2022-09-09T04:34:18.451Z,0.60
2022-09-09T04:37:04.491Z,0.55
2022-09-09T04:39:50.066Z,0.98
2022-09-09T04:42:40.535Z,0.90
2022-09-09T04:45:27.243Z,0.73
2022-09-09T04:48:13.184Z,0.80
2022-09-09T04:51:00.939Z,1.10
2022-09-09T04:53:48.592Z,2.13
2022-09-09T04:56:35.523Z,1.58
2022-09-09T04:59:22.740Z,0.38
2022-09-09T05:02:13.051Z,0.40
2022-09-09T05:04:59.075Z,2.05
2022-09-09T05:07:45.717Z,1.27
2022-09-09T05:10:32.444Z,0.38
2022-09-09T05:13:19.352Z,0.30
2022-09-09T05:16:05.307Z,0.47
2022-09-09T05:18:52.401Z,1.85
2022-09-09T05:21:38.983Z,1.48
2022-09-09T05:24:25.742Z,0.47
2022-09-09T05:27:13.980Z,0.47
2022-09-09T05:30:00.617Z,0.20
2022-09-09T05:32:48.375Z,0.10
2022-09-09T05:35:34.494Z,0.22
2022-09-09T05:38:20.952Z,0.10
2022-09-09T05:41:08.316Z,0.30
2022-09-09T05:43:54.030Z,0.77
2022-09-09T05:46:41.067Z,0.88
2022-09-09T05:49:27.107Z,0.50
2022-09-09T05:52:12.849Z,0.30
2022-09-09T05:54:58.562Z,0.70
2022-09-09T05:57:52.488Z,1.45
2022-09-09T06:00:49.846Z,0.30
2022-09-09T06:03:37.596Z,0.30
2022-09-09T06:06:27.008Z,1.17
2022-09-09T06:09:14.772Z,0.43
2022-09-09T06:12:02.632Z,0.47
2022-09-09T06:14:51.874Z,0.55
2022-09-09T06:17:39.870Z,0.55
2022-09-09T06:20:26.204Z,1.35
2022-09-09T06:23:13.322Z,1.48
2022-09-09T06:26:13.040Z,0.50
2022-09-09T06:29:00.466Z,0.43
2022-09-09T06:31:46.323Z,0.65
2022-09-09T06:34:37.179Z,0.10
2022-09-09T06:37:25.056Z,0.85
2022-09-09T06:40:11.369Z,0.68
2022-09-09T06:43:01.992Z,1.60
2022-09-09T06:46:03.248Z,1.85
2022-09-09T06:48:52.409Z,0.85
2022-09-09T06:51:44.078Z,0.35
2022-09-09T06:54:34.020Z,1.42
2022-09-09T06:57:37.313Z,0.50
2022-09-09T07:00:27.754Z,1.45
2022-09-09T07:03:16.476Z,0.45
2022-09-09T07:06:03.301Z,0.93
2022-09-09T07:08:56.892Z,2.30
2022-09-09T07:11:52.585Z,1.02
2022-09-09T07:14:44.561Z,0.88
2022-09-09T07:17:30.276Z,0.20
2022-09-09T07:20:19.229Z,0.10
2022-09-09T07:23:08.586Z,2.08
2022-09-09T07:25:55.083Z,0.50
2022-09-09T07:28:42.314Z,0.28
2022-09-09T07:31:33.876Z,0.55
2022-09-09T07:34:20.524Z,6.57
2022-09-09T07:37:06.466Z,0.65
2022-09-09T07:39:54.483Z,2.40
2022-09-09T07:42:42.964Z,2.75
2022-09-09T07:45:33.858Z,2.85
2022-09-09T07:48:20.235Z,0.95
2022-09-09T07:51:09.084Z,2.60
2022-09-09T07:54:01.619Z,1.98
2022-09-09T07:56:48.008Z,3.63
2022-09-09T07:59:37.389Z,2.10
2022-09-09T08:02:24.863Z,2.35
2022-09-09T08:05:13.624Z,1.52
2022-09-09T08:08:01.413Z,4.22
2022-09-09T08:10:47.623Z,4.15
2022-09-09T08:13:35.257Z,1.27
2022-09-09T08:16:24.517Z,4.20
2022-09-09T08:19:11.101Z,5.10
2022-09-09T08:21:58.198Z,2.55
2022-09-09T08:24:45.355Z,3.80
2022-09-09T08:27:33.583Z,1.50
2022-09-09T08:30:19.842Z,0.40
2022-09-09T08:33:06.223Z,2.25
2022-09-09T08:35:53.900Z,1.65
2022-09-09T08:38:39.838Z,1.95
2022-09-09T08:41:58.385Z,2.92
2022-09-09T08:45:09.074Z,0.40
2022-09-09T08:48:10.002Z,5.18
2022-09-09T08:51:06.403Z,2.58
2022-09-09T08:53:59.812Z,0.77
2022-09-09T08:56:46.644Z,3.10
2022-09-09T08:59:35.197Z,2.08
2022-09-09T09:02:54.650Z,3.50
2022-09-09T09:06:06.469Z,2.05
2022-09-09T09:09:10.975Z,3.47
2022-09-09T09:12:11.565Z,6.43
2022-09-09T09:15:01.654Z,1.55
2022-09-09T09:17:49.655Z,6.90
2022-09-09T09:20:49.270Z,1.90
2022-09-09T09:23:44.775Z,2.92
2022-09-09T09:26:36.268Z,3.40
2022-09-09T09:29:26.738Z,4.75
2022-09-09T09:32:17.266Z,3.65
2022-09-09T09:35:12.766Z,2.97
2022-09-09T09:41:10.578Z,3.65
2022-09-09T09:43:56.318Z,3.50
2022-09-09T09:46:43.461Z,6.95
2022-09-09T09:49:34.193Z,7.82
2022-09-09T09:52:30.444Z,9.70
2022-09-09T09:55:18.684Z,4.20
2022-09-09T09:58:07.629Z,3.42
2022-09-09T10:00:55.478Z,8.02
2022-09-09T10:04:15.361Z,4.78
2022-09-09T10:07:12.427Z,5.93
2022-09-09T10:09:59.550Z,3.28
2022-09-09T10:12:54.295Z,6.72
2022-09-09T10:16:09.297Z,3.47
2022-09-09T10:19:19.363Z,6.20
2022-09-09T10:22:33.984Z,3.10
2022-09-09T10:25:28.361Z,1.92
2022-09-09T10:28:48.326Z,4.63
2022-09-09T10:31:52.856Z,2.75
2022-09-09T10:34:50.873Z,2.70
2022-09-09T10:37:55.320Z,1.80
2022-09-09T10:40:59.329Z,1.42
2022-09-09T10:44:06.234Z,2.97
2022-09-09T10:47:01.847Z,2.72
2022-09-09T10:50:03.120Z,2.83
2022-09-09T10:53:03.490Z,2.63
2022-09-09T10:56:09.353Z,1.45
2022-09-09T10:59:25.207Z,1.23
2022-09-09T11:02:11.137Z,1.13
2022-09-09T11:05:11.410Z,1.10
2022-09-09T11:08:00.159Z,0.43
2022-09-09T11:11:18.856Z,3.10
2022-09-09T11:14:14.842Z,2.15
2022-09-09T11:17:06.431Z,3.70
2022-09-09T11:19:52.801Z,1.85
2022-09-09T11:22:44.323Z,1.30
2022-09-09T11:25:42.709Z,0.57
2022-09-09T11:28:52.646Z,1.52
2022-09-09T11:32:17.764Z,1.60
2022-09-09T11:35:37.196Z,1.92
2022-09-09T11:38:30.397Z,3.25
2022-09-09T11:41:21.538Z,1.38
2022-09-09T11:44:13.549Z,1.00
2022-09-09T11:46:59.373Z,0.52
2022-09-09T11:49:46.540Z,2.35
2022-09-09T11:52:46.717Z,2.97
2022-09-09T11:55:37.156Z,1.63
2022-09-09T11:58:23.670Z,0.60
2022-09-09T12:01:28.421Z,1.13
2022-09-09T12:04:34.121Z,1.48
2022-09-09T12:07:36.388Z,1.00
2022-09-09T12:10:33.631Z,0.75
2022-09-09T12:13:27.864Z,2.50
2022-09-09T12:16:34.328Z,0.82
2022-09-09T12:19:27.059Z,0.30
2022-09-09T12:22:28.925Z,1.58
2022-09-09T12:25:23.552Z,0.50
2022-09-09T12:28:19.873Z,1.63
2022-09-09T12:31:43.892Z,1.27
2022-09-09T12:35:01.065Z,0.93
2022-09-09T12:38:20.520Z,1.52
2022-09-09T12:41:20.536Z,0.55
2022-09-09T12:44:11.364Z,2.28
2022-09-09T12:47:02.842Z,0.40
2022-09-09T12:49:50.951Z,1.25
2022-09-09T12:52:39.936Z,0.40
2022-09-09T12:55:31.843Z,1.45
2022-09-09T12:58:19.275Z,0.25
2022-09-09T13:01:07.185Z,3.42
2022-09-09T13:03:53.841Z,2.28
2022-09-09T13:06:39.539Z,1.17
2022-09-09T13:09:25.417Z,2.15
2022-09-09T13:12:23.661Z,1.83
2022-09-09T13:15:25.647Z,1.17
2022-09-09T13:18:14.792Z,0.70
2022-09-09T13:21:01.287Z,1.17
2022-09-09T13:23:54.196Z,0.52
2022-09-09T13:26:40.345Z,0.63
2022-09-09T13:29:26.656Z,0.57
2022-09-09T13:32:19.102Z,1.75
2022-09-09T13:35:05.625Z,0.10
2022-09-09T13:37:51.771Z,0.15
2022-09-09T13:40:39.499Z,0.13
2022-09-09T13:43:26.890Z,0.50
2022-09-09T13:46:31.223Z,2.60
2022-09-09T13:49:17.416Z,0.80
2022-09-09T13:52:19.026Z,0.10
2022-09-09T13:55:04.907Z,0.73
2022-09-09T13:57:59.163Z,0.85
2022-09-09T14:00:46.286Z,0.47
2022-09-09T14:03:32.330Z,0.10
2022-09-09T14:06:19.930Z,0.38
2022-09-09T14:09:07.254Z,1.27
2022-09-09T14:11:53.078Z,0.50
2022-09-09T14:14:38.621Z,0.60
2022-09-09T14:17:26.371Z,1.70
2022-09-09T14:20:13.103Z,0.82
2022-09-09T14:23:03.220Z,0.40
2022-09-09T14:25:50.149Z,0.40
2022-09-09T14:28:54.927Z,1.25
2022-09-09T14:31:41.717Z,0.30
2022-09-09T14:34:27.751Z,0.60
2022-09-09T14:37:13.809Z,0.98
2022-09-09T14:40:00.049Z,0.60
2022-09-09T14:42:45.788Z,0.95
2022-09-09T14:45:31.824Z,1.10
2022-09-09T14:48:17.763Z,1.92
2022-09-09T14:51:09.130Z,0.93
2022-09-09T14:53:58.212Z,0.03
2022-09-09T14:56:46.968Z,0.82
2022-09-09T14:59:32.990Z,0.10
2022-09-09T15:02:18.654Z,1.02
2022-09-09T15:05:05.417Z,0.10
2022-09-09T15:07:51.410Z,1.05
2022-09-09T15:10:39.122Z,0.10
2022-09-09T15:13:25.910Z,0.35
2022-09-09T15:16:20.595Z,0.70
2022-09-09T15:19:06.628Z,0.63
2022-09-09T15:21:52.489Z,0.95
2022-09-09T15:24:37.998Z,1.48
2022-09-09T15:27:24.884Z,0.30
2022-09-09T15:30:11.040Z,0.88
2022-09-09T15:32:56.569Z,0.75
2022-09-09T15:35:42.209Z,0.30
2022-09-09T15:38:29.286Z,0.70
2022-09-09T15:41:15.580Z,1.90
2022-09-09T15:44:02.115Z,0.13
2022-09-09T15:46:56.710Z,1.58
2022-09-09T15:49:42.303Z,0.90
2022-09-09T15:52:28.021Z,2.03
2022-09-09T15:55:13.658Z,1.48
2022-09-09T15:57:59.197Z,0.68
2022-09-09T16:00:46.649Z,1.23
2022-09-09T16:03:39.969Z,1.30
2022-09-09T16:06:30.732Z,2.00
2022-09-09T16:09:17.015Z,0.80
2022-09-09T16:12:08.915Z,1.02
2022-09-09T16:14:56.242Z,1.55
2022-09-09T16:17:43.694Z,1.38
2022-09-09T16:20:29.529Z,0.93
2022-09-09T16:23:15.896Z,1.52
2022-09-09T16:26:05.677Z,0.70
2022-09-09T16:28:51.479Z,1.20
2022-09-09T16:31:38.631Z,1.52
2022-09-09T16:34:25.158Z,0.90
2022-09-09T16:37:12.276Z,0.98
2022-09-09T16:39:58.329Z,0.10
2022-09-09T16:42:44.372Z,1.63
2022-09-09T16:45:31.337Z,1.38
2022-09-09T16:48:17.045Z,1.48
2022-09-09T16:51:06.082Z,1.10
2022-09-09T16:53:53.528Z,0.82
2022-09-09T16:56:44.141Z,1.40
2022-09-09T16:59:29.819Z,0.20
2022-09-09T17:02:15.632Z,0.13
2022-09-09T17:05:01.931Z,0.30
2022-09-09T17:07:48.674Z,1.35
2022-09-09T17:10:34.613Z,0.88
2022-09-09T17:13:20.664Z,0.10
2022-09-09T17:16:06.355Z,0.20
2022-09-09T17:18:52.654Z,0.40
2022-09-09T17:21:54.606Z,0.70
2022-09-09T17:24:45.369Z,0.28
2022-09-09T17:27:34.495Z,0.50
2022-09-09T17:30:20.615Z,0.38
2022-09-09T17:33:07.605Z,0.68
2022-09-09T17:35:53.364Z,0.47
2022-09-09T17:38:39.712Z,0.30
2022-09-09T17:41:31.442Z,0.93
2022-09-09T17:44:17.357Z,0.15
2022-09-09T17:47:05.033Z,0.68
2022-09-09T17:49:50.790Z,1.08
2022-09-09T17:52:36.338Z,0.10
2022-09-09T17:55:22.453Z,0.20
2022-09-09T17:58:08.820Z,0.10
2022-09-09T18:00:54.244Z,0.47
2022-09-09T18:03:43.617Z,0.50
2022-09-09T18:06:38.063Z,1.08
2022-09-09T18:09:26.096Z,0.10
2022-09-09T18:12:11.738Z,0.80
2022-09-09T18:15:01.002Z,0.63
2022-09-09T18:17:49.184Z,2.10
2022-09-09T18:20:34.734Z,0.60
2022-09-09T18:23:20.278Z,0.22
2022-09-09T18:26:14.373Z,0.20
2022-09-09T18:29:03.752Z,0.20
2022-09-09T18:31:49.728Z,0.75
2022-09-09T18:34:35.889Z,0.35
2022-09-09T18:37:21.405Z,0.70
2022-09-09T18:40:07.798Z,0.50
2022-09-09T18:42:53.213Z,0.77
2022-09-09T18:45:39.089Z,0.10
2022-09-09T18:48:25.018Z,0.10
2022-09-09T18:51:11.798Z,0.73
2022-09-09T18:54:03.344Z,0.20
2022-09-09T18:56:49.829Z,0.20
2022-09-09T18:59:36.455Z,0.20
2022-09-09T19:02:22.075Z,0.10
2022-09-09T19:05:08.313Z,0.10
2022-09-09T19:07:53.632Z,0.10
2022-09-09T19:10:39.338Z,0.40
2022-09-09T19:13:25.494Z,0.20
2022-09-09T19:16:15.314Z,0.10
2022-09-09T19:19:06.921Z,0.13
2022-09-09T19:21:58.243Z,0.15
2022-09-09T19:24:45.879Z,0.10
2022-09-09T19:27:31.414Z,0.10
2022-09-09T19:30:17.243Z,0.20
2022-09-09T19:33:04.383Z,0.10
2022-09-09T19:36:02.272Z,0.10
2022-09-09T19:38:49.296Z,0.38
2022-09-09T19:41:35.200Z,0.32
2022-09-09T19:44:20.698Z,0.10
2022-09-09T19:47:07.855Z,0.10
2022-09-09T19:49:53.759Z,0.85
2022-09-09T19:52:39.690Z,0.30
2022-09-09T19:55:28.690Z,0.10
2022-09-09T19:58:14.615Z,0.10
2022-09-09T20:01:17.156Z,0.10
2022-09-09T20:04:04.622Z,0.20
2022-09-09T20:06:53.139Z,0.40
2022-09-09T20:09:39.355Z,0.10
2022-09-09T20:12:25.025Z,0.10
2022-09-09T20:15:11.060Z,0.50
2022-09-09T20:17:56.407Z,0.10
2022-09-09T20:20:43.144Z,0.52
2022-09-09T20:23:29.612Z,0.50
2022-09-09T20:26:17.728Z,0.32
2022-09-09T20:29:05.992Z,1.00
2022-09-09T20:31:52.036Z,0.10
2022-09-09T20:34:37.924Z,0.30
2022-09-09T20:37:24.029Z,0.70
2022-09-09T20:40:10.459Z,0.40
2022-09-09T20:42:56.207Z,0.10
2022-09-09T20:45:43.850Z,0.10
2022-09-09T20:48:33.476Z,0.10
2022-09-09T20:51:23.626Z,1.60
2022-09-09T20:54:15.851Z,0.17
2022-09-09T20:57:02.117Z,0.10
2022-09-09T20:59:50.942Z,0.65
2022-09-09T21:02:36.496Z,0.13
2022-09-09T21:05:24.270Z,0.10
2022-09-09T21:08:09.946Z,0.10
2022-09-09T21:10:55.931Z,0.10
2022-09-09T21:13:41.673Z,0.55
2022-09-09T21:16:27.991Z,0.10
2022-09-09T21:19:13.959Z,0.20
2022-09-09T21:22:00.249Z,0.57
2022-09-09T21:24:45.840Z,0.10
2022-09-09T21:27:31.627Z,0.73
2022-09-09T21:30:17.216Z,0.65
2022-09-09T21:33:04.275Z,0.30
2022-09-09T21:35:50.790Z,0.10
2022-09-09T21:38:36.416Z,0.10
2022-09-09T21:41:21.806Z,0.10
2022-09-09T21:44:09.154Z,0.13
2022-09-09T21:46:54.598Z,0.10
2022-09-09T21:49:40.214Z,0.43
2022-09-09T21:52:25.867Z,0.10
2022-09-09T21:55:11.766Z,0.10
2022-09-09T21:57:59.748Z,0.38
2022-09-09T22:00:47.037Z,0.65
2022-09-09T22:03:33.464Z,0.30
2022-09-09T22:06:19.649Z,0.47
2022-09-09T22:09:05.594Z,0.10
2022-09-09T22:11:52.695Z,0.10
2022-09-09T22:14:38.521Z,1.05
2022-09-09T22:17:24.453Z,0.20
2022-09-09T22:20:12.281Z,0.10
2022-09-09T22:23:02.569Z,0.10
2022-09-09T22:25:50.199Z,0.10
2022-09-09T22:28:39.004Z,0.63
2022-09-09T22:31:25.668Z,0.60
2022-09-09T22:34:11.326Z,0.10
2022-09-09T22:36:56.935Z,0.10
2022-09-09T22:39:42.688Z,0.10
2022-09-09T22:42:28.334Z,0.43
2022-09-09T22:45:14.103Z,0.10
2022-09-09T22:48:01.208Z,1.08
2022-09-09T22:50:47.253Z,2.30
2022-09-09T22:53:32.787Z,0.95
2022-09-09T22:56:20.303Z,0.98
2022-09-09T22:59:06.741Z,0.88
2022-09-09T23:01:52.704Z,1.50
2022-09-09T23:04:39.292Z,1.13
2022-09-09T23:07:24.631Z,0.52
2022-09-09T23:10:11.213Z,2.25
2022-09-09T23:12:58.716Z,2.85
2022-09-09T23:15:46.239Z,2.08
2022-09-09T23:18:33.820Z,2.42
2022-09-09T23:21:20.060Z,3.70
2022-09-09T23:24:07.220Z,3.25
2022-09-09T23:26:53.145Z,4.90
2022-09-09T23:29:39.096Z,2.75
2022-09-09T23:32:25.090Z,3.30
2022-09-09T23:35:10.841Z,2.67
2022-09-09T23:37:58.031Z,5.28
2022-09-09T23:40:47.162Z,7.60
2022-09-09T23:43:39.430Z,5.13
2022-09-09T23:46:28.509Z,3.42
2022-09-09T23:49:14.361Z,6.55
2022-09-09T23:52:02.112Z,3.65
2022-09-09T23:54:49.796Z,5.43
2022-09-09T23:57:35.446Z,1.25
